Ana Sayfa
METAR-TAF:

METAR-TAF

Havaalanları :

Bellaire, Michigan, Amerika Birleşik Devletleri

Enlem: 44-59-18N, Boylam: 085-11-54W, yükseklik: 190 m

Güncel hava durumu gözlemi

Rapor saat 13:15 UTC de 16 dakika önce yapıldı.
Sakin rüzgar
Sıcaklık 2°C
Nem 93%
Basınç 1002 hPa
Görüş mesafesi: 3.2 km
1000 ft yükseklikte çok bulutlu
bilinmiyor

METAR: KACB 091315Z AUTO 00000KT 2SM UP OVC010 02/01 A2959 RMK AO2 T00200011

Saat: 08:31 (13:31 UTC)


TAF: eksik

4.000'den fazla havaalanı için hava durumu gözlemleri ve tahminleri (METAR ve TAF raporları).

Kullanılabilir istasyonlar harita üzerinde sarı ve kırmızı noktalarla gösterilir.

İstasyonun adını görmek için fareyi noktanın üzerinde gezdirin.

Sonrasında hava gözlem ve tahminlerini görmek için tıklayın.

Haritayı değiştirmek için: yaklaştırmak için siyah artı işaretli yeşil düğmeye ve uzaklaştırmak için de eksi işaretli düğmeye hızla tıklayın; bitişik haritalar için yeşil okları kullanın.


METAR-TAF: